Česky Dansk Deutsch English Español Suomi Français Magyar Italiano Nederlands norsk Polski Português svenska Türkçe

 

Het Weer

Djibouti \ Ambouli (Djibouti)

14:00, 21 augustus 2016 (GMT)

NWNNE
WE
SWSSE
Home            
Djibouti \ Ambouli Djibouti Assab Mokha Mokha Aden Berbera Hargeisa Jiggiga Dire Dawa Taiz Burao Hodeidah Combolcha Awash Sana'A Makale Marib Ataq Al-Hazm Kabre Dare Military Harar Meda Addis Ababa

Om een weerknop op uw website of weblog te plaatsen, copieer onderstaande code en plak die in uw pagina. In het eerste vakje staat HTML-code, in het tweede vakje UBB-code.


Add to Google

Details

Wind speed:4 bf, 13 kn, 6.7 m/s, 15.0 miles/h, 24.1 km/h
Wind direction:WNW, 290°
Visibility:Greater than 10000 m, 10 km, 32800 ft, 6.2 miles
Clouds:CAVOC
Temperature:41°C, 106°F
Gefühlte Temperatur:47°C, 116°F
Dew-point:21°C, 70°F
Atmospheric pressure:1001 hPa, 750.8 mmHg, 29.56 inHg, 0.988 atm
Relative humidity:32.0 %
METAR:HDAM 211400Z 29013KT CAVOK 41/21 Q1001

Snelkoppelingen

Actuele weersinformatie van de hele wereld. Voeg locaties toe met het plus (+) symbool. Deze snelkoppelingen kunnen worden toegevoegd aan Google.

Lid van de Technetium groep

website free tracking
StatCounter NetStat W3C Validator

14-04-2021 10:28:14
astro.technetium.be money.technetium.be phote.technetium.be tafeltennistafel.technetium.be www.ligfiets.net